Redmond, WA (98052)

4:10 PM PDT on September 02, 2015 (GMT -0700)
Redmond, Education Hill | | Change Station
CLOSE
Current Station
Personal Weather Station
Location: Redmond, WA
Elevation: 299 ft
Nearby Weather Stations

Elev 299 ft 47.70 °N, 122.12 °W | Updated 2 seconds ago

Partly Cloudy
Partly Cloudy
67.6 °F
Feels Like 67.6 °F
N
4.0
Wind Variable Wind from South
Gusts 4.0 mph

Today
High -- | Low -- °F
--% Chance of Precip.
Yesterday
High -- | Low -- °F
Precip. -- in
6:28 AM 7:47 PM
Waning Gibbous, 76% visible
Pressure 29.89 in
Visibility 10.0 miles
Clouds Few 4000 ft
Scattered Clouds 10000 ft
Dew Point 49 °F
Humidity 52%
Rainfall 0.01 in
Snow Depth Not available.
UV 4 out of 12
Pollen .50 out of 12
Air Quality Not available.
Flu Activity Not available.
METAR KBFI 022253Z COR 20008KT 160V240 10SM FEW040 SCT100 21/08 A2989 RMK AO2 SLP122 T02060078
Pressure 29.89 in
Visibility 10.0 miles
Clouds Few 4000 ft
Scattered Clouds 10000 ft
Dew Point 49 °F
Humidity 52%
Rainfall 0.01 in
Snow Depth Not available.
UV 4 out of 12
Pollen .50 out of 12
Air Quality Not available.
Flu Activity Not available.
METAR KBFI 022253Z COR 20008KT 160V240 10SM FEW040 SCT100 21/08 A2989 RMK AO2 SLP122 T02060078

10-Day Weather Forecast

×

Almanac

Astronomy

Sep. 02, 2015 Rise Set
Actual Time
Civil Twilight
Nautical Twilight
Astronomical Twilight
Moon
Length of Visible Light
Length of Day
Tomorrow will be .
, % of the Moon is Illuminated

Today's Extremes

State Highs State Lows

Community

WunderPhotos

Upload Photos

1,851,823 photos uploaded!

WunderBlogs® & News

Nearby

Air Quality

  Air Quality AQ Index Pollutant
Not available.

Snow Depth

Station Depth Elevation

Earthquake Activity

City Distance Mag. Time & Date
Minimum magnitude displayed is 2.5.

Coastal Water Temperatures

Place Temperature

Stations

Nearby Weather Stations

Station Location Temp. Windchill Dew Point Humidity Wind Precip. Elev Updated Type